createdAt,value
2019-05-13T00:01:50.154Z,103126.06
2019-05-13T00:04:56.632Z,103125.88
2019-05-13T00:08:03.723Z,103132.63
2019-05-13T00:11:10.287Z,103136.89
2019-05-13T00:14:16.588Z,103141.05
2019-05-13T00:17:23.678Z,103137.97
2019-05-13T00:20:30.424Z,103135.72
2019-05-13T00:23:36.865Z,103150.27
2019-05-13T00:26:44.448Z,103152.27
2019-05-13T00:29:53.416Z,103149.30
2019-05-13T00:32:59.447Z,103140.65
2019-05-13T00:36:05.942Z,103156.11
2019-05-13T00:39:12.381Z,103151.00
2019-05-13T00:42:18.823Z,103144.23
2019-05-13T00:45:25.376Z,103157.05
2019-05-13T00:48:33.482Z,103163.27
2019-05-13T00:51:39.786Z,103170.16
2019-05-13T00:54:46.327Z,103163.93
2019-05-13T00:57:54.122Z,103167.95
2019-05-13T01:01:00.545Z,103170.02
2019-05-13T01:04:06.940Z,103176.16
2019-05-13T01:07:25.345Z,103176.59
2019-05-13T01:10:23.661Z,103165.78
2019-05-13T01:13:29.593Z,103171.59
2019-05-13T01:16:36.018Z,103175.02
2019-05-13T01:19:43.319Z,103182.31
2019-05-13T01:22:49.969Z,103180.83
2019-05-13T01:25:56.357Z,103177.31
2019-05-13T01:29:04.228Z,103187.25
2019-05-13T01:32:10.964Z,103184.91
2019-05-13T01:35:17.253Z,103183.88
2019-05-13T01:38:24.216Z,103196.22
2019-05-13T01:41:30.598Z,103194.75
2019-05-13T01:44:37.360Z,103200.63
2019-05-13T01:47:44.323Z,103202.73
2019-05-13T01:50:53.197Z,103203.98
2019-05-13T01:53:59.101Z,103207.04
2019-05-13T01:57:05.612Z,103203.52
2019-05-13T02:00:14.043Z,103210.61
2019-05-13T02:03:20.143Z,103213.18
2019-05-13T02:06:26.480Z,103228.27
2019-05-13T02:09:33.862Z,103224.42
2019-05-13T02:12:40.236Z,103226.70
2019-05-13T02:15:46.632Z,103230.34
2019-05-13T02:18:53.689Z,103232.69
2019-05-13T02:22:00.101Z,103239.10
2019-05-13T02:25:06.606Z,103235.25
2019-05-13T02:28:13.902Z,103233.39
2019-05-13T02:31:32.005Z,103244.11
2019-05-13T02:34:31.899Z,103245.03
2019-05-13T02:37:36.607Z,103240.52
2019-05-13T02:40:43.457Z,103236.01
2019-05-13T02:43:52.584Z,103241.88
2019-05-13T02:46:57.974Z,103237.96
2019-05-13T02:50:05.434Z,103238.08
2019-05-13T02:53:13.732Z,103244.37
2019-05-13T02:56:22.678Z,103246.38
2019-05-13T02:59:28.223Z,103246.98
2019-05-13T03:02:34.576Z,103261.70
2019-05-13T03:05:42.875Z,103263.44
2019-05-13T03:08:53.237Z,103269.30
2019-05-13T03:11:57.201Z,103269.37
2019-05-13T03:15:03.561Z,103265.78
2019-05-13T03:18:13.028Z,103264.27
2019-05-13T03:21:17.963Z,103260.13
2019-05-13T03:24:24.354Z,103273.34
2019-05-13T03:27:33.648Z,103281.25
2019-05-13T03:30:39.285Z,103282.61
2019-05-13T03:33:47.348Z,103294.27
2019-05-13T03:36:56.935Z,103292.36
2019-05-13T03:40:03.619Z,103297.97
2019-05-13T03:43:12.884Z,103300.85
2019-05-13T03:46:22.773Z,103293.73
2019-05-13T03:49:32.651Z,103300.75
2019-05-13T03:52:38.683Z,103303.41
2019-05-13T03:55:45.338Z,103304.48
2019-05-13T03:58:53.666Z,103307.11
2019-05-13T04:02:02.578Z,103320.05
2019-05-13T04:05:08.328Z,103317.53
2019-05-13T04:08:14.780Z,103311.63
2019-05-13T04:11:22.634Z,103324.70
2019-05-13T04:14:29.305Z,103328.20
2019-05-13T04:17:35.750Z,103332.72
2019-05-13T04:20:43.278Z,103338.53
2019-05-13T04:23:52.773Z,103344.66
2019-05-13T04:26:57.736Z,103354.02
2019-05-13T04:30:05.658Z,103353.06
2019-05-13T04:33:13.871Z,103346.34
2019-05-13T04:36:23.002Z,103349.50
2019-05-13T04:39:41.777Z,103360.55
2019-05-13T04:42:36.487Z,103362.92
2019-05-13T04:45:43.206Z,103363.00
2019-05-13T04:48:52.751Z,103363.15
2019-05-13T04:51:57.718Z,103363.53
2019-05-13T04:55:04.216Z,103365.77
2019-05-13T04:58:12.967Z,103377.47
2019-05-13T05:02:05.032Z,103377.78
2019-05-13T05:05:22.518Z,103381.96
2019-05-13T05:09:07.650Z,103377.48
2019-05-13T05:13:02.335Z,103393.17
2019-05-13T05:16:44.734Z,103391.17
2019-05-13T05:20:06.959Z,103391.22
2019-05-13T05:23:45.178Z,103397.70
2019-05-13T05:27:22.736Z,103393.70
2019-05-13T05:30:59.375Z,103393.70
2019-05-13T05:34:14.913Z,103402.80
2019-05-13T05:37:48.198Z,103399.62
2019-05-13T05:40:55.266Z,103395.31
2019-05-13T05:44:03.154Z,103410.64
2019-05-13T05:47:11.334Z,103400.88
2019-05-13T05:50:17.788Z,103407.32
2019-05-13T05:53:25.603Z,103409.20
2019-05-13T05:56:33.255Z,103413.92
2019-05-13T05:59:41.832Z,103420.72
2019-05-13T06:02:49.343Z,103426.50
2019-05-13T06:05:56.561Z,103432.05
2019-05-13T06:09:06.068Z,103428.31
2019-05-13T06:12:13.089Z,103429.41
2019-05-13T06:15:22.536Z,103436.02
2019-05-13T06:18:28.678Z,103441.59
2019-05-13T06:21:35.116Z,103457.75
2019-05-13T06:24:42.262Z,103448.35
2019-05-13T06:27:51.099Z,103454.23
2019-05-13T06:30:57.164Z,103457.33
2019-05-13T06:34:03.574Z,103461.66
2019-05-13T06:37:11.454Z,103464.84
2019-05-13T06:40:17.996Z,103465.55
2019-05-13T06:43:24.407Z,103479.52
2019-05-13T06:46:32.285Z,103487.30
2019-05-13T06:49:38.834Z,103489.48
2019-05-13T06:52:45.427Z,103482.31
2019-05-13T06:55:52.407Z,103492.66
2019-05-13T06:59:01.294Z,103494.00
2019-05-13T07:02:07.297Z,103503.61
2019-05-13T07:05:13.739Z,103505.67
2019-05-13T07:08:22.177Z,103501.70
2019-05-13T07:11:28.227Z,103505.45
2019-05-13T07:14:34.924Z,103516.00
2019-05-13T07:17:42.155Z,103510.41
2019-05-13T07:20:48.694Z,103515.14
2019-05-13T07:23:55.161Z,103515.77
2019-05-13T07:27:02.671Z,103525.58
2019-05-13T07:30:11.368Z,103531.83
2019-05-13T07:33:17.889Z,103535.91
2019-05-13T07:36:24.313Z,103544.41
2019-05-13T07:39:32.803Z,103556.66
2019-05-13T07:42:41.764Z,103557.67
2019-05-13T07:45:47.588Z,103558.47
2019-05-13T07:48:53.905Z,103561.72
2019-05-13T07:52:01.579Z,103563.91
2019-05-13T07:55:11.795Z,103564.81
2019-05-13T07:58:17.404Z,103567.26
2019-05-13T08:01:23.996Z,103576.14
2019-05-13T08:04:33.439Z,103579.58
2019-05-13T08:07:38.825Z,103579.05
2019-05-13T08:10:45.246Z,103588.45
2019-05-13T08:13:52.658Z,103588.45
2019-05-13T08:16:59.022Z,103590.89
2019-05-13T08:20:05.651Z,103591.41
2019-05-13T08:23:12.371Z,103591.94
2019-05-13T08:26:18.677Z,103588.55
2019-05-13T08:29:25.279Z,103596.50
2019-05-13T08:32:31.768Z,103592.89
2019-05-13T08:35:38.484Z,103596.24
2019-05-13T08:38:45.042Z,103598.96
2019-05-13T08:41:51.661Z,103608.36
2019-05-13T08:44:58.030Z,103615.33
2019-05-13T08:48:04.519Z,103615.98
2019-05-13T08:51:11.705Z,103623.05
2019-05-13T08:54:18.330Z,103614.69
2019-05-13T08:57:25.798Z,103609.94
2019-05-13T09:00:59.150Z,103614.86
2019-05-13T09:04:05.636Z,103613.98
2019-05-13T09:07:12.619Z,103613.88
2019-05-13T09:10:21.306Z,103621.66
2019-05-13T09:13:27.002Z,103615.30
2019-05-13T09:16:33.441Z,103623.94
2019-05-13T09:19:41.485Z,103620.61
2019-05-13T09:22:47.964Z,103623.22
2019-05-13T09:25:54.980Z,103623.63
2019-05-13T09:29:01.638Z,103617.91
2019-05-13T09:32:08.255Z,103620.48
2019-05-13T09:35:14.693Z,103617.76
2019-05-13T09:38:22.294Z,103619.20
2019-05-13T09:41:28.795Z,103614.80
2019-05-13T09:44:35.604Z,103610.83
2019-05-13T09:47:41.985Z,103616.64
2019-05-13T09:50:48.561Z,103620.73
2019-05-13T09:53:55.031Z,103621.70
2019-05-13T09:57:01.981Z,103625.89
2019-05-13T10:00:08.709Z,103629.31
2019-05-13T10:03:15.458Z,103624.56
2019-05-13T10:06:22.326Z,103626.91
2019-05-13T10:09:28.895Z,103626.64
2019-05-13T10:12:35.148Z,103622.13
2019-05-13T10:15:42.179Z,103620.84
2019-05-13T10:18:48.538Z,103620.76
2019-05-13T10:21:55.006Z,103618.20
2019-05-13T10:25:02.558Z,103623.80
2019-05-13T10:28:09.250Z,103615.67
2019-05-13T10:31:15.839Z,103610.69
2019-05-13T10:34:22.889Z,103604.32
2019-05-13T10:37:29.521Z,103603.50
2019-05-13T10:40:36.478Z,103602.08
2019-05-13T10:43:44.343Z,103605.53
2019-05-13T10:46:52.279Z,103603.91
2019-05-13T10:49:58.736Z,103611.17
2019-05-13T10:53:05.100Z,103611.17
2019-05-13T10:56:11.433Z,103611.62
2019-05-13T10:59:18.495Z,103605.87
2019-05-13T11:02:25.117Z,103609.20
2019-05-13T11:05:32.689Z,103616.16
2019-05-13T11:08:41.992Z,103611.74
2019-05-13T11:11:47.706Z,103618.11
2019-05-13T11:14:55.478Z,103609.48
2019-05-13T11:18:03.065Z,103611.95
2019-05-13T11:21:12.743Z,103611.80
2019-05-13T11:24:17.978Z,103612.73
2019-05-13T11:27:24.336Z,103615.12
2019-05-13T11:30:31.945Z,103601.78
2019-05-13T11:33:38.441Z,103606.48
2019-05-13T11:36:45.046Z,103611.89
2019-05-13T11:39:52.918Z,103605.69
2019-05-13T11:43:01.743Z,103612.88
2019-05-13T11:46:08.990Z,103611.16
2019-05-13T11:49:15.564Z,103604.13
2019-05-13T11:52:22.772Z,103617.50
2019-05-13T11:55:29.213Z,103611.07
2019-05-13T11:58:35.568Z,103621.69
2019-05-13T12:01:42.875Z,103618.58
2019-05-13T12:04:49.137Z,103619.17
2019-05-13T12:07:55.517Z,103617.19
2019-05-13T12:11:04.049Z,103610.94
2019-05-13T12:14:37.039Z,103611.19
2019-05-13T12:17:18.851Z,103619.56
2019-05-13T12:20:26.252Z,103611.61
2019-05-13T12:23:32.606Z,103613.09
2019-05-13T12:26:39.290Z,103611.64
2019-05-13T12:29:45.656Z,103614.47
2019-05-13T12:32:52.013Z,103619.44
2019-05-13T12:35:58.788Z,103619.37
2019-05-13T12:39:07.237Z,103613.86
2019-05-13T12:42:13.693Z,103620.05
2019-05-13T12:45:22.441Z,103620.80
2019-05-13T12:48:28.781Z,103625.12
2019-05-13T12:51:35.312Z,103619.45
2019-05-13T12:54:43.796Z,103622.20
2019-05-13T12:57:52.094Z,103617.13
2019-05-13T13:00:57.933Z,103612.25
2019-05-13T13:04:04.525Z,103611.20
2019-05-13T13:07:13.422Z,103621.56
2019-05-13T13:10:19.119Z,103610.84
2019-05-13T13:13:52.645Z,103619.70
2019-05-13T13:16:36.053Z,103614.23
2019-05-13T13:19:42.815Z,103606.94
2019-05-13T13:22:49.573Z,103611.23
2019-05-13T13:25:57.269Z,103609.41
2019-05-13T13:29:03.820Z,103608.33
2019-05-13T13:32:13.385Z,103612.61
2019-05-13T13:35:22.022Z,103609.18
2019-05-13T13:38:28.400Z,103607.73
2019-05-13T13:41:35.024Z,103601.45
2019-05-13T13:44:42.937Z,103605.47
2019-05-13T13:48:01.999Z,103596.23
2019-05-13T13:50:58.437Z,103596.36
2019-05-13T13:54:05.332Z,103585.30
2019-05-13T13:57:13.346Z,103585.30
2019-05-13T14:00:34.465Z,103589.86
2019-05-13T14:03:28.381Z,103589.47
2019-05-13T14:09:43.008Z,103591.14
2019-05-13T14:12:52.494Z,103581.02
2019-05-13T14:15:58.720Z,103578.22
2019-05-13T14:19:06.433Z,103585.47
2019-05-13T14:22:14.338Z,103579.95
2019-05-13T14:25:27.705Z,103591.47
2019-05-13T14:28:34.043Z,103592.30
2019-05-13T14:31:41.511Z,103592.41
2019-05-13T14:34:47.822Z,103595.37
2019-05-13T14:37:54.252Z,103595.15
2019-05-13T14:41:03.159Z,103591.36
2019-05-13T14:44:08.815Z,103589.13
2019-05-13T14:47:15.311Z,103590.03
2019-05-13T14:50:23.028Z,103569.40
2019-05-13T14:53:31.862Z,103569.40
2019-05-13T14:56:37.637Z,103575.00
2019-05-13T14:59:46.397Z,103583.52
2019-05-13T15:02:52.901Z,103584.31
2019-05-13T15:06:01.401Z,103583.44
2019-05-13T15:09:08.111Z,103581.06
2019-05-13T15:12:14.492Z,103585.13
2019-05-13T15:15:22.384Z,103580.17
2019-05-13T15:18:29.144Z,103588.89
2019-05-13T15:21:36.244Z,103583.58
2019-05-13T15:24:42.661Z,103577.25
2019-05-13T15:27:49.157Z,103587.14
2019-05-13T15:30:55.543Z,103589.97
2019-05-13T15:34:02.867Z,103597.14
2019-05-13T15:37:11.261Z,103600.86
2019-05-13T15:40:17.969Z,103606.25
2019-05-13T15:43:24.485Z,103601.31
2019-05-13T15:46:32.310Z,103611.03
2019-05-13T15:49:38.749Z,103602.48
2019-05-13T15:52:48.667Z,103605.91
2019-05-13T15:55:54.996Z,103614.83
2019-05-13T15:59:01.930Z,103626.77
2019-05-13T16:02:08.495Z,103626.77
2019-05-13T16:05:14.884Z,103626.33
2019-05-13T16:08:21.345Z,103621.63
2019-05-13T16:11:27.836Z,103632.45
2019-05-13T16:14:34.367Z,103628.35
2019-05-13T16:17:44.477Z,103629.35
2019-05-13T16:20:48.846Z,103638.89
2019-05-13T16:23:55.336Z,103643.11
2019-05-13T16:27:02.740Z,103650.67
2019-05-13T16:30:11.787Z,103641.66
2019-05-13T16:33:18.462Z,103648.16
2019-05-13T16:36:24.883Z,103655.39
2019-05-13T16:39:31.957Z,103637.75
2019-05-13T16:42:38.761Z,103656.37
2019-05-13T16:45:45.362Z,103666.28
2019-05-13T16:48:51.935Z,103667.99
2019-05-13T16:51:58.199Z,103659.81
2019-05-13T16:55:05.515Z,103665.97
2019-05-13T16:58:12.615Z,103669.12
2019-05-13T17:01:21.812Z,103672.86
2019-05-13T17:04:27.381Z,103666.86
2019-05-13T17:07:33.842Z,103670.52
2019-05-13T17:10:42.024Z,103689.08
2019-05-13T17:13:51.340Z,103681.19
2019-05-13T17:16:57.271Z,103686.92
2019-05-13T17:20:03.866Z,103687.35
2019-05-13T17:23:12.429Z,103689.36
2019-05-13T17:26:18.806Z,103709.00
2019-05-13T17:29:25.194Z,103681.55
2019-05-13T17:32:31.653Z,103704.95
2019-05-13T17:35:38.063Z,103697.64
2019-05-13T17:38:44.838Z,103714.96
2019-05-13T17:41:52.242Z,103710.03
2019-05-13T17:44:58.815Z,103714.43
2019-05-13T17:48:05.172Z,103717.34
2019-05-13T17:51:13.780Z,103711.63
2019-05-13T17:54:22.163Z,103714.70
2019-05-13T17:57:29.059Z,103722.72
2019-05-13T18:00:35.404Z,103729.59
2019-05-13T18:03:41.761Z,103723.89
2019-05-13T18:06:48.203Z,103736.48
2019-05-13T18:09:54.786Z,103741.85
2019-05-13T18:13:01.763Z,103733.69
2019-05-13T18:16:09.198Z,103740.87
2019-05-13T18:19:18.351Z,103743.66
2019-05-13T18:22:25.098Z,103747.90
2019-05-13T18:25:33.189Z,103749.15
2019-05-13T18:28:42.142Z,103747.52
2019-05-13T18:31:48.519Z,103745.36
2019-05-13T18:34:55.038Z,103757.98
2019-05-13T18:38:01.521Z,103755.53
2019-05-13T18:41:07.846Z,103766.19
2019-05-13T18:44:14.278Z,103765.08
2019-05-13T18:47:22.098Z,103770.16
2019-05-13T18:50:31.196Z,103777.96
2019-05-13T18:53:37.155Z,103774.89
2019-05-13T18:56:46.775Z,103784.21
2019-05-13T18:59:54.461Z,103789.27
2019-05-13T19:03:01.403Z,103787.44
2019-05-13T19:06:07.786Z,103788.67
2019-05-13T19:09:14.131Z,103791.33
2019-05-13T19:12:21.973Z,103795.75
2019-05-13T19:15:28.567Z,103804.80
2019-05-13T19:18:35.129Z,103798.38
2019-05-13T19:21:41.778Z,103803.45
2019-05-13T19:24:49.207Z,103803.03
2019-05-13T19:27:55.679Z,103810.23
2019-05-13T19:31:02.442Z,103811.12
2019-05-13T19:34:09.000Z,103818.69
2019-05-13T19:37:17.715Z,103820.20
2019-05-13T19:40:24.560Z,103819.09
2019-05-13T19:43:33.532Z,103809.20
2019-05-13T19:46:42.170Z,103813.52
2019-05-13T19:49:48.251Z,103814.64
2019-05-13T19:52:56.151Z,103816.62
2019-05-13T19:56:02.644Z,103824.39
2019-05-13T19:59:09.163Z,103819.97
2019-05-13T20:02:17.346Z,103801.45
2019-05-13T20:05:24.536Z,103819.11
2019-05-13T20:08:32.029Z,103829.45
2019-05-13T20:11:42.236Z,103828.56
2019-05-13T20:14:51.903Z,103838.25
2019-05-13T20:17:58.264Z,103828.69
2019-05-13T20:21:04.864Z,103837.58
2019-05-13T20:24:12.396Z,103841.16
2019-05-13T20:27:21.845Z,103849.58
2019-05-13T20:30:30.377Z,103844.64
2019-05-13T20:33:39.877Z,103842.14
2019-05-13T20:36:44.615Z,103842.51
2019-05-13T20:39:52.766Z,103843.11
2019-05-13T20:43:01.901Z,103853.33
2019-05-13T20:46:11.301Z,103846.67
2019-05-13T20:49:19.182Z,103833.80
2019-05-13T20:52:25.544Z,103829.27
2019-05-13T20:55:33.580Z,103841.36
2019-05-13T20:58:42.141Z,103832.70
2019-05-13T21:01:51.003Z,103835.93
2019-05-13T21:05:02.543Z,103842.89
2019-05-13T21:08:08.621Z,103839.21
2019-05-13T21:11:18.122Z,103844.80
2019-05-13T21:14:24.568Z,103847.09
2019-05-13T21:17:30.936Z,103849.36
2019-05-13T21:20:38.490Z,103846.01
2019-05-13T21:23:45.068Z,103841.08
2019-05-13T21:26:53.205Z,103843.97
2019-05-13T21:30:01.196Z,103848.34
2019-05-13T21:33:11.496Z,103848.34
2019-05-13T21:36:21.648Z,103841.58
2019-05-13T21:39:32.017Z,103835.55
2019-05-13T21:42:38.485Z,103851.48
2019-05-13T21:45:44.826Z,103843.11
2019-05-13T21:48:52.057Z,103841.02
2019-05-13T21:52:00.079Z,103848.02
2019-05-13T21:55:06.486Z,103833.25
2019-05-13T21:58:16.404Z,103847.02
2019-05-13T22:01:36.125Z,103844.83
2019-05-13T22:04:42.556Z,103847.41
2019-05-13T22:07:51.088Z,103850.91
2019-05-13T22:10:57.399Z,103849.20
2019-05-13T22:14:03.825Z,103842.08
2019-05-13T22:17:12.270Z,103839.06
2019-05-13T22:20:18.151Z,103845.00
2019-05-13T22:23:24.494Z,103847.18
2019-05-13T22:26:31.395Z,103844.16
2019-05-13T22:29:37.741Z,103843.09
2019-05-13T22:32:44.068Z,103838.31
2019-05-13T22:35:52.253Z,103834.64
2019-05-13T22:39:02.035Z,103829.17
2019-05-13T22:42:12.223Z,103836.08
2019-05-13T22:45:18.124Z,103834.62
2019-05-13T22:48:24.462Z,103838.86
2019-05-13T22:51:31.998Z,103832.73
2019-05-13T22:54:38.596Z,103832.45
2019-05-13T22:57:44.902Z,103825.36
2019-05-13T23:00:51.700Z,103824.73
2019-05-13T23:03:58.662Z,103831.44
2019-05-13T23:07:04.945Z,103826.03
2019-05-13T23:10:11.994Z,103823.14
2019-05-13T23:13:18.279Z,103832.41
2019-05-13T23:16:25.042Z,103830.02
2019-05-13T23:19:32.325Z,103818.72
2019-05-13T23:22:41.302Z,103816.06
2019-05-13T23:25:47.038Z,103815.41
2019-05-13T23:28:53.454Z,103817.91
2019-05-13T23:32:01.472Z,103815.03
2019-05-13T23:35:08.064Z,103811.93
2019-05-13T23:38:14.730Z,103815.67
2019-05-13T23:41:21.851Z,103818.00
2019-05-13T23:44:28.499Z,103815.84
2019-05-13T23:47:34.944Z,103817.80
2019-05-13T23:50:41.998Z,103812.70
2019-05-13T23:53:50.975Z,103803.80
2019-05-13T23:56:57.461Z,103802.84
